createdAt,value
2022-08-25T00:03:35.985Z,21.29
2022-08-25T00:07:41.707Z,21.26
2022-08-25T00:11:45.618Z,21.19
2022-08-25T00:15:47.958Z,21.16
2022-08-25T00:19:50.307Z,21.16
2022-08-25T00:23:53.342Z,21.17
2022-08-25T00:27:55.571Z,21.16
2022-08-25T00:31:58.967Z,21.16
2022-08-25T00:36:01.087Z,21.15
2022-08-25T00:40:06.360Z,21.05
2022-08-25T00:44:12.097Z,20.94
2022-08-25T00:48:14.434Z,20.80
2022-08-25T00:52:23.216Z,20.75
2022-08-25T00:56:26.981Z,20.77
2022-08-25T01:00:37.130Z,20.74
2022-08-25T01:04:39.275Z,20.73
2022-08-25T01:08:41.762Z,20.64
2022-08-25T01:12:44.289Z,20.59
2022-08-25T01:16:50.957Z,20.48
2022-08-25T01:20:59.761Z,20.33
2022-08-25T01:25:08.334Z,20.23
2022-08-25T01:29:26.728Z,20.34
2022-08-25T01:33:54.223Z,20.48
2022-08-25T01:37:56.430Z,20.57
2022-08-25T01:42:10.996Z,20.61
2022-08-25T01:46:33.069Z,20.63
2022-08-25T01:50:35.320Z,20.59
2022-08-25T01:54:37.558Z,20.55
2022-08-25T01:58:43.250Z,20.51
2022-08-25T02:02:45.869Z,20.39
2022-08-25T02:06:49.466Z,20.31
2022-08-25T02:10:55.361Z,20.20
2022-08-25T02:14:59.276Z,20.10
2022-08-25T02:19:01.643Z,20.10
2022-08-25T02:23:04.606Z,20.19
2022-08-25T02:27:06.748Z,20.28
2022-08-25T02:31:09.538Z,20.37
2022-08-25T02:35:12.888Z,20.37
2022-08-25T02:39:15.027Z,20.37
2022-08-25T02:43:17.093Z,20.40
2022-08-25T02:47:20.230Z,20.39
2022-08-25T02:51:29.920Z,20.34
2022-08-25T02:55:34.518Z,20.16
2022-08-25T02:59:38.813Z,20.17
2022-08-25T03:03:43.965Z,20.03
2022-08-25T03:07:46.300Z,19.90
2022-08-25T03:11:49.281Z,19.94
2022-08-25T03:15:52.613Z,20.00
2022-08-25T03:19:54.851Z,20.08
2022-08-25T03:23:56.999Z,20.18
2022-08-25T03:27:59.304Z,20.15
2022-08-25T03:32:01.922Z,19.95
2022-08-25T03:36:05.557Z,19.89
2022-08-25T03:40:15.377Z,19.93
2022-08-25T03:44:21.340Z,20.00
2022-08-25T03:48:23.422Z,20.06
2022-08-25T03:52:26.407Z,20.11
2022-08-25T03:56:28.629Z,20.07
2022-08-25T04:00:30.883Z,20.01
2022-08-25T04:04:33.713Z,19.99
2022-08-25T04:08:36.468Z,19.98
2022-08-25T04:12:38.773Z,20.00
2022-08-25T04:16:41.113Z,20.00
2022-08-25T04:20:46.553Z,20.00
2022-08-25T04:24:49.212Z,20.04
2022-08-25T04:28:52.620Z,20.09
2022-08-25T04:32:54.842Z,20.12
2022-08-25T04:37:01.402Z,20.19
2022-08-25T04:41:06.439Z,20.31
2022-08-25T04:45:09.639Z,20.48
2022-08-25T04:49:12.251Z,20.66
2022-08-25T04:53:21.233Z,20.77
2022-08-25T04:57:23.442Z,20.90
2022-08-25T05:01:26.126Z,21.10
2022-08-25T05:05:28.350Z,21.28
2022-08-25T05:09:32.442Z,21.46
2022-08-25T05:13:36.425Z,21.62
2022-08-25T05:17:39.975Z,21.75
2022-08-25T05:21:42.876Z,21.82
2022-08-25T05:25:45.123Z,21.83
2022-08-25T05:29:47.319Z,21.84
2022-08-25T05:33:50.706Z,21.92
2022-08-25T05:37:52.877Z,22.03
2022-08-25T05:41:55.267Z,22.12
2022-08-25T05:45:58.817Z,22.20
2022-08-25T05:50:02.440Z,22.28
2022-08-25T05:54:05.041Z,22.33
2022-08-25T05:58:07.371Z,22.40
2022-08-25T06:02:30.715Z,22.45
2022-08-25T06:06:32.931Z,22.52
2022-08-25T06:10:37.794Z,22.60
2022-08-25T06:14:46.201Z,22.69
2022-08-25T06:18:48.365Z,22.79
2022-08-25T06:22:50.925Z,22.89
2022-08-25T06:26:55.460Z,23.02
2022-08-25T06:30:59.848Z,23.11
2022-08-25T06:35:15.985Z,23.21
2022-08-25T06:39:18.096Z,23.34
2022-08-25T06:43:22.798Z,23.47
2022-08-25T06:47:24.920Z,23.62
2022-08-25T06:51:27.190Z,23.77
2022-08-25T06:55:29.170Z,23.91
2022-08-25T06:59:32.336Z,24.02
2022-08-25T07:03:34.664Z,24.14
2022-08-25T07:07:43.729Z,24.27
2022-08-25T07:11:46.552Z,24.45
2022-08-25T07:15:59.836Z,24.61
2022-08-25T07:20:02.107Z,24.79
2022-08-25T07:24:26.501Z,24.97
2022-08-25T07:28:28.592Z,25.18
2022-08-25T07:32:30.672Z,25.38
2022-08-25T07:36:33.190Z,25.60
2022-08-25T07:40:37.728Z,25.81
2022-08-25T07:44:44.857Z,26.00
2022-08-25T07:48:53.210Z,26.25
2022-08-25T07:52:57.546Z,26.53
2022-08-25T07:56:59.664Z,26.81
2022-08-25T08:01:02.691Z,27.12
2022-08-25T08:05:05.727Z,27.39
2022-08-25T08:09:13.172Z,27.63
2022-08-25T08:13:18.425Z,27.89
2022-08-25T08:17:21.888Z,28.15
2022-08-25T08:21:30.634Z,28.40
2022-08-25T08:25:32.832Z,28.57
2022-08-25T08:29:36.454Z,28.74
2022-08-25T08:33:40.818Z,28.93
2022-08-25T08:37:43.986Z,29.14
2022-08-25T08:42:18.490Z,29.29
2022-08-25T08:46:23.163Z,29.49
2022-08-25T08:50:42.163Z,29.67
2022-08-25T08:54:50.366Z,29.86
2022-08-25T08:59:00.540Z,29.97
2022-08-25T09:03:27.702Z,30.13
2022-08-25T09:07:42.083Z,30.30
2022-08-25T09:11:47.478Z,30.46
2022-08-25T09:16:23.320Z,30.56
2022-08-25T09:21:21.615Z,30.72
2022-08-25T09:30:05.383Z,31.00
2022-08-25T09:34:19.863Z,31.11
2022-08-25T09:38:23.294Z,31.20
2022-08-25T09:42:50.350Z,31.30
2022-08-25T09:47:15.066Z,31.46
2022-08-25T09:51:42.844Z,31.61
2022-08-25T09:56:00.203Z,31.73
2022-08-25T10:00:33.742Z,31.68
2022-08-25T10:04:38.658Z,31.66
2022-08-25T10:08:45.157Z,31.69
2022-08-25T10:12:51.085Z,31.72
2022-08-25T10:17:13.590Z,31.71
2022-08-25T10:21:18.594Z,31.61
2022-08-25T10:25:28.456Z,31.63
2022-08-25T10:29:52.704Z,31.74
2022-08-25T10:34:20.956Z,31.77
2022-08-25T10:38:36.615Z,31.71
2022-08-25T10:43:19.562Z,31.73
2022-08-25T10:47:57.157Z,31.77
2022-08-25T10:52:10.184Z,31.90
2022-08-25T10:56:40.130Z,32.05
2022-08-25T11:01:03.671Z,32.13
2022-08-25T11:05:45.098Z,32.20
2022-08-25T11:09:52.693Z,32.20
2022-08-25T11:14:01.181Z,32.30
2022-08-25T11:18:14.704Z,32.39
2022-08-25T11:22:27.039Z,32.43
2022-08-25T11:26:36.944Z,32.38
2022-08-25T11:30:40.805Z,32.35
2022-08-25T11:34:43.849Z,32.36
2022-08-25T11:38:52.419Z,32.40
2022-08-25T11:43:46.273Z,32.44
2022-08-25T11:48:15.053Z,32.52
2022-08-25T11:52:35.707Z,32.50
2022-08-25T11:56:41.400Z,32.49
2022-08-25T12:00:44.165Z,32.48
2022-08-25T12:04:46.364Z,32.51
2022-08-25T12:09:12.815Z,32.56
2022-08-25T12:13:41.565Z,32.64
2022-08-25T12:17:44.182Z,32.64
2022-08-25T12:21:46.405Z,32.67
2022-08-25T12:25:53.693Z,32.67
2022-08-25T12:29:55.513Z,32.67
2022-08-25T12:34:30.685Z,32.70
2022-08-25T12:38:46.284Z,32.86
2022-08-25T12:43:06.347Z,32.85
2022-08-25T12:47:24.304Z,32.84
2022-08-25T12:51:32.557Z,32.84
2022-08-25T12:55:36.021Z,32.78
2022-08-25T12:59:45.763Z,32.72
2022-08-25T13:04:00.698Z,32.72
2022-08-25T13:08:21.861Z,32.73
2022-08-25T13:12:32.216Z,32.71
2022-08-25T13:16:34.775Z,32.73
2022-08-25T13:20:36.845Z,32.74
2022-08-25T13:24:44.494Z,32.81
2022-08-25T13:28:54.778Z,32.80
2022-08-25T13:32:57.946Z,32.77
2022-08-25T13:37:27.250Z,32.75
2022-08-25T13:41:33.887Z,32.76
2022-08-25T13:45:46.359Z,32.77
2022-08-25T13:49:48.443Z,32.74
2022-08-25T13:54:00.304Z,32.67
2022-08-25T13:58:03.707Z,32.64
2022-08-25T14:02:07.819Z,32.61
2022-08-25T14:06:17.427Z,32.59
2022-08-25T14:10:34.741Z,32.58
2022-08-25T14:14:40.666Z,32.57
2022-08-25T14:18:51.468Z,32.59
2022-08-25T14:22:58.319Z,32.57
2022-08-25T14:27:04.042Z,32.57
2022-08-25T14:31:09.164Z,32.51
2022-08-25T14:35:11.719Z,32.44
2022-08-25T14:39:19.660Z,32.40
2022-08-25T14:43:31.289Z,32.37
2022-08-25T14:47:36.729Z,32.36
2022-08-25T14:51:43.406Z,32.39
2022-08-25T14:55:45.777Z,32.40
2022-08-25T14:59:48.156Z,32.41
2022-08-25T15:03:55.357Z,32.47
2022-08-25T15:08:16.373Z,32.47
2022-08-25T15:12:37.398Z,32.43
2022-08-25T15:16:51.101Z,32.33
2022-08-25T15:20:53.440Z,32.29
2022-08-25T15:24:55.610Z,32.23
2022-08-25T15:28:57.727Z,32.11
2022-08-25T15:32:59.870Z,32.08
2022-08-25T15:37:11.978Z,31.98
2022-08-25T15:41:14.093Z,31.86
2022-08-25T15:45:16.329Z,31.81
2022-08-25T15:49:23.494Z,31.74
2022-08-25T15:53:29.382Z,31.65
2022-08-25T15:57:31.622Z,31.54
2022-08-25T16:01:37.213Z,31.42
2022-08-25T16:05:47.885Z,31.23
2022-08-25T16:09:51.138Z,31.06
2022-08-25T16:13:54.446Z,30.89
2022-08-25T16:18:00.079Z,30.66
2022-08-25T16:22:03.027Z,30.49
2022-08-25T16:26:10.649Z,30.37
2022-08-25T16:30:17.604Z,30.25
2022-08-25T16:34:20.191Z,30.13
2022-08-25T16:38:22.478Z,29.95
2022-08-25T16:42:24.684Z,29.76
2022-08-25T16:46:29.148Z,29.57
2022-08-25T16:50:32.721Z,29.39
2022-08-25T16:54:58.332Z,29.19
2022-08-25T16:59:02.556Z,28.95
2022-08-25T17:03:06.093Z,28.70
2022-08-25T17:07:08.470Z,28.48
2022-08-25T17:11:13.770Z,28.27
2022-08-25T17:15:21.966Z,28.04
2022-08-25T17:19:27.325Z,27.80
2022-08-25T17:23:30.827Z,27.56
2022-08-25T17:27:33.312Z,27.32
2022-08-25T17:31:39.356Z,27.09
2022-08-25T17:35:44.058Z,26.89
2022-08-25T17:39:46.251Z,26.67
2022-08-25T17:43:52.478Z,26.42
2022-08-25T17:47:55.920Z,26.19
2022-08-25T17:51:58.973Z,25.98
2022-08-25T17:56:06.771Z,25.77
2022-08-25T18:00:11.699Z,25.52
2022-08-25T18:04:17.937Z,25.26
2022-08-25T18:08:21.979Z,24.96
2022-08-25T18:12:35.858Z,24.67
2022-08-25T18:16:39.082Z,24.41
2022-08-25T18:20:45.622Z,24.21
2022-08-25T18:24:47.855Z,24.00
2022-08-25T18:28:49.974Z,23.77
2022-08-25T18:32:52.169Z,23.52
2022-08-25T18:36:54.486Z,23.40
2022-08-25T18:41:02.557Z,23.30
2022-08-25T18:45:06.473Z,23.15
2022-08-25T18:49:08.762Z,22.98
2022-08-25T18:53:12.130Z,22.82
2022-08-25T18:57:14.303Z,22.72
2022-08-25T19:01:18.536Z,22.62
2022-08-25T19:05:25.049Z,22.46
2022-08-25T19:09:27.644Z,22.31
2022-08-25T19:13:30.657Z,22.19
2022-08-25T19:17:37.457Z,22.07
2022-08-25T19:21:41.609Z,21.97
2022-08-25T19:25:43.754Z,21.93
2022-08-25T19:29:45.876Z,21.90
2022-08-25T19:33:50.530Z,21.74
2022-08-25T19:37:54.532Z,21.53
2022-08-25T19:41:56.818Z,21.31
2022-08-25T19:45:59.585Z,21.00
2022-08-25T19:50:01.770Z,20.78
2022-08-25T19:54:05.222Z,20.74
2022-08-25T19:58:11.072Z,20.76
2022-08-25T20:02:19.899Z,20.75
2022-08-25T20:06:22.209Z,20.75
2022-08-25T20:10:27.595Z,20.72
2022-08-25T20:14:32.493Z,20.70
2022-08-25T20:18:34.646Z,20.65
2022-08-25T20:22:37.928Z,20.50
2022-08-25T20:26:40.836Z,20.16
2022-08-25T20:31:13.483Z,19.84
2022-08-25T20:35:17.595Z,19.72
2022-08-25T20:39:21.156Z,19.81
2022-08-25T20:43:23.318Z,19.89
2022-08-25T20:47:25.607Z,19.90
2022-08-25T20:51:28.427Z,19.83
2022-08-25T20:55:31.773Z,19.74
2022-08-25T20:59:42.451Z,19.74
2022-08-25T21:03:45.384Z,19.67
2022-08-25T21:07:50.086Z,19.57
2022-08-25T21:11:54.462Z,19.42
2022-08-25T21:15:56.528Z,19.21
2022-08-25T21:19:58.694Z,19.09
2022-08-25T21:24:00.951Z,19.12
2022-08-25T21:28:03.242Z,19.16
2022-08-25T21:32:05.531Z,19.14
2022-08-25T21:36:09.763Z,19.13
2022-08-25T21:40:12.369Z,19.07
2022-08-25T21:44:14.574Z,18.95
2022-08-25T21:48:16.775Z,18.80
2022-08-25T21:52:18.976Z,18.68
2022-08-25T21:56:22.209Z,18.66
2022-08-25T22:00:28.725Z,18.68
2022-08-25T22:04:31.944Z,18.66
2022-08-25T22:08:35.885Z,18.50
2022-08-25T22:12:38.967Z,18.33
2022-08-25T22:16:42.214Z,18.29
2022-08-25T22:20:44.466Z,18.27
2022-08-25T22:24:46.612Z,18.14
2022-08-25T22:28:48.870Z,18.01
2022-08-25T22:32:52.529Z,17.87
2022-08-25T22:36:54.565Z,17.79
2022-08-25T22:41:02.284Z,17.78
2022-08-25T22:45:06.718Z,17.81
2022-08-25T22:49:08.911Z,17.78
2022-08-25T22:53:11.317Z,17.65
2022-08-25T22:57:13.398Z,17.61
2022-08-25T23:01:18.481Z,17.63
2022-08-25T23:05:20.781Z,17.57
2022-08-25T23:09:23.220Z,17.50
2022-08-25T23:13:34.108Z,17.51
2022-08-25T23:17:37.334Z,17.55
2022-08-25T23:21:58.570Z,17.52
2022-08-25T23:26:00.768Z,17.47
2022-08-25T23:30:03.625Z,17.39
2022-08-25T23:34:06.429Z,17.20
2022-08-25T23:38:10.808Z,17.02
2022-08-25T23:42:12.958Z,17.00
2022-08-25T23:46:17.739Z,17.08
2022-08-25T23:50:19.839Z,17.13
2022-08-25T23:54:22.294Z,17.10
2022-08-25T23:58:33.342Z,17.02
